This is the latest recevied weather packets stored in our database for station/object HS3MXC-2. If no packets are shown the sender has not sent any weather packets the latest 1 day(s).
| Time | Temp. | Humidity | Pressure | Rain* | Wind** | Luminosity | Snow |
|---|---|---|---|---|---|---|---|
| 1778041069 | 26.67° C | 46% | 997.1 hPa | - | - | - | - |
| 1778040452 | 26.11° C | 45% | 997.1 hPa | - | - | - | - |
| 1778040145 | 25.56° C | 47% | 997.2 hPa | - | - | - | - |
| 1778039530 | 25.56° C | 50% | 997.2 hPa | - | - | - | - |
| 1778037994 | 23.89° C | 50% | 997.6 hPa | - | - | - | - |
| 1778037687 | 23.89° C | 51% | 997.7 hPa | - | - | - | - |
| 1778037380 | 23.89° C | 51% | 997.7 hPa | - | - | - | - |
| 1778036453 | 24.44° C | 50% | 997.9 hPa | - | - | - | - |
| 1778036147 | 23.89° C | 47% | 997.9 hPa | - | - | - | - |
| 1778035533 | 24.44° C | 49% | 998 hPa | - | - | - | - |
| 1778035221 | 24.44° C | 49% | 998 hPa | - | - | - | - |
| 1778034914 | 25° C | 50% | 998 hPa | - | - | - | - |
| 1778034607 | 25° C | 50% | 998 hPa | - | - | - | - |
| 1778034301 | 25.56° C | 52% | 998.1 hPa | - | - | - | - |
| 1778033993 | 27.78° C | 52% | 998 hPa | - | - | - | - |
| 1778033685 | 27.22° C | 52% | 998.1 hPa | - | - | - | - |
| 1778033378 | 27.22° C | 53% | 998.1 hPa | - | - | - | - |
| 1778033070 | 27.22° C | 55% | 998 hPa | - | - | - | - |
| 1778031837 | 29.44° C | 70% | 997.9 hPa | - | - | - | - |
| 1778031529 | 29.44° C | 70% | 997.8 hPa | - | - | - | - |
| 1778031220 | 29.44° C | 70% | 997.8 hPa | - | - | - | - |
| 1778030914 | 29.44° C | 70% | 997.7 hPa | - | - | - | - |
| 1778030299 | 28.89° C | 70% | 997.6 hPa | - | - | - | - |
| 1778029993 | 28.89° C | 70% | 997.6 hPa | - | - | - | - |
| 1778029686 | 28.89° C | 70% | 997.5 hPa | - | - | - | - |
* Rain since midnight (hover to see other rain measurements)
** Current wind speed in m/s (hover to see current wind gust speed)